createdAt,value
2023-12-21T00:01:08.399Z,100707.31
2023-12-21T00:03:36.037Z,100702.00
2023-12-21T00:06:05.339Z,100694.34
2023-12-21T00:08:33.481Z,100695.47
2023-12-21T00:10:59.987Z,100692.09
2023-12-21T00:13:27.702Z,100681.63
2023-12-21T00:15:54.725Z,100679.38
2023-12-21T00:18:21.628Z,100675.47
2023-12-21T00:20:48.301Z,100676.66
2023-12-21T00:23:14.848Z,100673.53
2023-12-21T00:25:41.478Z,100665.78
2023-12-21T00:28:08.012Z,100648.47
2023-12-21T00:30:34.454Z,100651.59
2023-12-21T00:33:00.917Z,100647.78
2023-12-21T00:35:27.383Z,100649.34
2023-12-21T00:37:53.814Z,100639.34
2023-12-21T00:40:20.853Z,100632.47
2023-12-21T00:42:47.903Z,100629.75
2023-12-21T00:45:14.417Z,100625.94
2023-12-21T00:47:41.183Z,100615.94
2023-12-21T00:50:08.610Z,100613.31
2023-12-21T00:52:35.260Z,100617.25
2023-12-21T00:55:01.845Z,100599.22
2023-12-21T00:57:28.316Z,100588.34
2023-12-21T00:59:54.938Z,100597.22
2023-12-21T01:02:21.566Z,100591.47
2023-12-21T01:04:48.575Z,100571.00
2023-12-21T01:07:15.014Z,100570.22
2023-12-21T01:09:41.561Z,100571.81
2023-12-21T01:12:08.560Z,100584.88
2023-12-21T01:14:35.170Z,100575.97
2023-12-21T01:17:01.650Z,100571.72
2023-12-21T01:19:28.156Z,100569.44
2023-12-21T01:21:54.685Z,100562.13
2023-12-21T01:24:21.115Z,100560.56
2023-12-21T01:26:47.513Z,100555.19
2023-12-21T01:29:14.042Z,100560.19
2023-12-21T01:31:40.461Z,100567.94
2023-12-21T01:34:07.268Z,100554.91
2023-12-21T01:36:33.811Z,100547.59
2023-12-21T01:39:00.245Z,100538.81
2023-12-21T01:41:26.936Z,100529.56
2023-12-21T01:43:54.886Z,100530.31
2023-12-21T01:46:25.201Z,100533.41
2023-12-21T01:48:52.984Z,100524.50
2023-12-21T01:51:20.661Z,100534.53
2023-12-21T01:53:48.052Z,100542.19
2023-12-21T01:56:14.584Z,100534.09
2023-12-21T01:58:41.115Z,100542.19
2023-12-21T02:01:08.485Z,100550.28
2023-12-21T02:03:35.599Z,100529.81
2023-12-21T02:06:02.126Z,100520.59
2023-12-21T02:08:29.010Z,100514.03
2023-12-21T02:11:00.883Z,100519.44
2023-12-21T02:13:27.490Z,100505.25
2023-12-21T02:15:57.591Z,100501.88
2023-12-21T02:18:24.293Z,100508.03
2023-12-21T02:20:50.928Z,100498.81
2023-12-21T02:23:20.856Z,100492.72
2023-12-21T02:25:47.433Z,100481.56
2023-12-21T02:28:14.022Z,100468.06
2023-12-21T02:30:40.676Z,100461.88
2023-12-21T02:33:08.289Z,100474.59
2023-12-21T02:35:35.266Z,100469.19
2023-12-21T02:38:01.884Z,100473.47
2023-12-21T02:40:28.439Z,100456.47
2023-12-21T02:42:54.911Z,100452.66
2023-12-21T02:45:21.488Z,100454.94
2023-12-21T02:47:48.182Z,100460.66
2023-12-21T02:50:14.830Z,100473.38
2023-12-21T02:52:41.345Z,100452.16
2023-12-21T02:55:08.221Z,100443.25
2023-12-21T02:57:34.871Z,100449.06
2023-12-21T03:00:01.382Z,100436.03
2023-12-21T03:02:28.024Z,100424.06
2023-12-21T03:04:54.488Z,100416.84
2023-12-21T03:07:21.427Z,100401.44
2023-12-21T03:09:47.860Z,100392.97
2023-12-21T03:12:14.447Z,100374.00
2023-12-21T03:14:40.845Z,100353.94
2023-12-21T03:17:07.250Z,100357.09
2023-12-21T03:19:33.777Z,100354.75
2023-12-21T03:22:00.408Z,100345.06
2023-12-21T03:24:26.913Z,100350.13
2023-12-21T03:26:53.713Z,100348.53
2023-12-21T03:29:20.123Z,100334.28
2023-12-21T03:31:46.748Z,100326.16
2023-12-21T03:34:13.295Z,100325.41
2023-12-21T03:36:39.771Z,100325.03
2023-12-21T03:39:06.305Z,100335.03
2023-12-21T03:41:33.055Z,100320.41
2023-12-21T03:43:59.509Z,100324.31
2023-12-21T03:46:26.146Z,100315.09
2023-12-21T03:48:52.640Z,100324.75
2023-12-21T03:51:19.147Z,100322.84
2023-12-21T03:53:45.577Z,100310.09
2023-12-21T03:56:12.140Z,100318.97
2023-12-21T03:58:39.083Z,100310.09
2023-12-21T04:01:05.749Z,100297.31
2023-12-21T04:03:32.297Z,100277.63
2023-12-21T04:05:58.874Z,100273.38
2023-12-21T04:08:25.363Z,100259.88
2023-12-21T04:10:51.762Z,100273.75
2023-12-21T04:13:18.405Z,100264.84
2023-12-21T04:15:44.973Z,100253.63
2023-12-21T04:18:11.595Z,100241.28
2023-12-21T04:20:38.061Z,100215.41
2023-12-21T04:23:04.680Z,100208.06
2023-12-21T04:25:31.859Z,100196.50
2023-12-21T04:27:58.654Z,100201.19
2023-12-21T04:30:25.146Z,100177.31
2023-12-21T04:32:51.833Z,100180.00
2023-12-21T04:35:18.378Z,100188.53
2023-12-21T04:37:44.858Z,100163.50
2023-12-21T04:40:11.745Z,100151.19
2023-12-21T04:42:38.541Z,100153.91
2023-12-21T04:45:05.428Z,100158.16
2023-12-21T04:47:31.897Z,100166.28
2023-12-21T04:49:58.392Z,100152.78
2023-12-21T04:52:24.875Z,100157.41
2023-12-21T04:54:51.395Z,100165.91
2023-12-21T04:57:21.036Z,100156.66
2023-12-21T04:59:48.197Z,100165.91
2023-12-21T05:02:14.615Z,100162.88
2023-12-21T05:04:41.404Z,100144.00
2023-12-21T05:07:11.501Z,100132.44
2023-12-21T05:09:38.518Z,100145.09
2023-12-21T05:12:05.796Z,100118.84
2023-12-21T05:14:32.563Z,100121.19
2023-12-21T05:16:59.173Z,100110.75
2023-12-21T05:19:26.022Z,100117.38
2023-12-21T05:21:52.748Z,100099.22
2023-12-21T05:24:19.306Z,100110.84
2023-12-21T05:26:45.733Z,100091.13
2023-12-21T05:29:12.149Z,100111.53
2023-12-21T05:31:38.598Z,100120.38
2023-12-21T05:34:05.731Z,100112.97
2023-12-21T05:36:32.357Z,100116.38
2023-12-21T05:38:58.872Z,100102.47
2023-12-21T05:41:25.302Z,100103.19
2023-12-21T05:43:51.804Z,100091.19
2023-12-21T05:46:18.526Z,100086.16
2023-12-21T05:48:45.082Z,100091.91
2023-12-21T05:51:12.818Z,100100.72
2023-12-21T05:53:39.459Z,100089.16
2023-12-21T05:56:06.808Z,100093.78
2023-12-21T05:58:34.855Z,100084.53
2023-12-21T06:01:01.446Z,100103.47
2023-12-21T06:03:28.001Z,100096.19
2023-12-21T06:05:54.411Z,100085.03
2023-12-21T06:08:20.859Z,100076.94
2023-12-21T06:10:47.491Z,100067.63
2023-12-21T06:13:14.116Z,100058.75
2023-12-21T06:15:40.647Z,100061.81
2023-12-21T06:18:09.185Z,100044.84
2023-12-21T06:20:37.171Z,100026.72
2023-12-21T06:23:04.053Z,100007.03
2023-12-21T06:25:31.203Z,100026.72
2023-12-21T06:27:57.965Z,100024.38
2023-12-21T06:30:24.516Z,100004.34
2023-12-21T06:32:51.127Z,99993.91
2023-12-21T06:35:18.355Z,99996.25
2023-12-21T06:37:45.216Z,99984.66
2023-12-21T06:40:12.134Z,99962.28
2023-12-21T06:42:38.687Z,99961.16
2023-12-21T06:45:05.729Z,99964.63
2023-12-21T06:47:32.169Z,99958.50
2023-12-21T06:49:58.861Z,99961.59
2023-12-21T06:52:25.309Z,99948.88
2023-12-21T06:54:51.843Z,99945.06
2023-12-21T06:57:18.568Z,99934.66
2023-12-21T06:59:45.195Z,99927.34
2023-12-21T07:02:11.644Z,99922.72
2023-12-21T07:04:38.280Z,99901.91
2023-12-21T07:07:04.890Z,99899.19
2023-12-21T07:09:31.316Z,99899.19
2023-12-21T07:11:57.721Z,99891.09
2023-12-21T07:14:24.330Z,99886.88
2023-12-21T07:16:51.216Z,99886.09
2023-12-21T07:19:17.820Z,99879.09
2023-12-21T07:21:44.629Z,99880.63
2023-12-21T07:24:11.035Z,99897.91
2023-12-21T07:26:38.307Z,99882.53
2023-12-21T07:29:04.818Z,99869.78
2023-12-21T07:31:31.421Z,99877.09
2023-12-21T07:33:57.854Z,99865.16
2023-12-21T07:36:24.480Z,99863.59
2023-12-21T07:38:50.875Z,99860.09
2023-12-21T07:41:17.314Z,99863.16
2023-12-21T07:43:46.103Z,99857.38
2023-12-21T07:46:15.018Z,99847.28
2023-12-21T07:48:41.617Z,99874.28
2023-12-21T07:51:09.972Z,99871.16
2023-12-21T07:53:36.436Z,99863.06
2023-12-21T07:56:04.028Z,99868.47
2023-12-21T07:58:30.595Z,99856.13
2023-12-21T08:00:57.198Z,99852.28
2023-12-21T08:03:23.692Z,99866.50
2023-12-21T08:05:50.153Z,99872.28
2023-12-21T08:08:16.584Z,99868.44
2023-12-21T08:10:43.418Z,99858.41
2023-12-21T08:13:10.672Z,99856.19
2023-12-21T08:15:37.173Z,99837.69
2023-12-21T08:18:04.214Z,99811.09
2023-12-21T08:20:31.178Z,99835.44
2023-12-21T08:22:59.293Z,99839.72
2023-12-21T08:25:26.090Z,99833.53
2023-12-21T08:27:52.620Z,99821.59
2023-12-21T08:30:22.134Z,99801.13
2023-12-21T08:32:49.735Z,99801.56
2023-12-21T08:35:16.434Z,99800.34
2023-12-21T08:37:43.029Z,99803.06
2023-12-21T08:40:10.225Z,99804.97
2023-12-21T08:42:36.633Z,99796.94
2023-12-21T08:45:06.734Z,99803.09
2023-12-21T08:47:40.362Z,99791.53
2023-12-21T08:50:07.166Z,99801.19
2023-12-21T08:52:33.736Z,99792.69
2023-12-21T08:55:00.682Z,99779.63
2023-12-21T08:57:27.146Z,99783.91
2023-12-21T08:59:54.171Z,99778.56
2023-12-21T09:02:20.701Z,99776.31
2023-12-21T09:04:48.565Z,99755.16
2023-12-21T09:07:15.071Z,99767.13
2023-12-21T09:09:42.248Z,99771.03
2023-12-21T09:12:08.715Z,99750.59
2023-12-21T09:14:35.141Z,99754.47
2023-12-21T09:17:01.699Z,99738.25
2023-12-21T09:19:28.967Z,99754.09
2023-12-21T09:21:55.864Z,99758.31
2023-12-21T09:24:22.427Z,99743.66
2023-12-21T09:26:48.935Z,99743.28
2023-12-21T09:29:15.351Z,99733.25
2023-12-21T09:31:41.749Z,99761.06
2023-12-21T09:34:08.987Z,99738.72
2023-12-21T09:36:35.490Z,99747.59
2023-12-21T09:39:02.082Z,99730.63
2023-12-21T09:41:28.551Z,99754.22
2023-12-21T09:43:56.707Z,99746.19
2023-12-21T09:46:25.052Z,99740.44
2023-12-21T09:48:55.014Z,99735.44
2023-12-21T09:51:22.539Z,99734.34
2023-12-21T09:53:50.393Z,99743.59
2023-12-21T09:56:18.588Z,99759.81
2023-12-21T09:58:48.136Z,99735.13
2023-12-21T10:01:15.212Z,99752.94
2023-12-21T10:03:41.793Z,99739.84
2023-12-21T10:06:08.391Z,99749.91
2023-12-21T10:08:34.952Z,99748.75
2023-12-21T10:11:07.706Z,99729.75
2023-12-21T10:13:35.236Z,99735.94
2023-12-21T10:16:04.306Z,99717.03
2023-12-21T10:18:31.326Z,99710.09
2023-12-21T10:20:59.986Z,99724.81
2023-12-21T10:23:26.686Z,99730.63
2023-12-21T10:25:55.276Z,99714.03
2023-12-21T10:28:25.769Z,99716.41
2023-12-21T10:30:56.524Z,99718.78
2023-12-21T10:33:23.353Z,99707.63
2023-12-21T10:35:52.584Z,99692.19
2023-12-21T10:38:19.383Z,99684.44
2023-12-21T10:40:47.216Z,99706.09
2023-12-21T10:43:17.423Z,99711.09
2023-12-21T10:45:47.690Z,99697.19
2023-12-21T10:48:16.422Z,99689.81
2023-12-21T10:50:50.825Z,99664.31
2023-12-21T10:53:20.136Z,99685.91
2023-12-21T10:55:50.000Z,99677.81
2023-12-21T10:58:17.379Z,99664.25
2023-12-21T11:00:45.116Z,99683.94
2023-12-21T11:03:17.873Z,99686.63
2023-12-21T11:05:46.166Z,99706.72
2023-12-21T11:08:13.108Z,99698.63
2023-12-21T11:10:39.872Z,99677.44
2023-12-21T11:13:06.376Z,99683.28
2023-12-21T11:15:34.072Z,99689.44
2023-12-21T11:18:14.630Z,99648.88
2023-12-21T11:20:53.517Z,99665.88
2023-12-21T11:23:22.558Z,99661.63
2023-12-21T11:25:59.475Z,99666.63
2023-12-21T11:28:29.011Z,99668.16
2023-12-21T11:30:56.102Z,99644.56
2023-12-21T11:33:32.292Z,99644.56
2023-12-21T11:35:59.258Z,99648.06
2023-12-21T11:38:43.421Z,99648.81
2023-12-21T11:41:10.778Z,99642.66
2023-12-21T11:43:37.239Z,99663.13
2023-12-21T11:46:03.844Z,99659.66
2023-12-21T11:48:36.297Z,99655.03
2023-12-21T11:51:03.961Z,99664.28
2023-12-21T11:53:39.083Z,99654.22
2023-12-21T11:56:14.329Z,99646.16
2023-12-21T11:58:45.222Z,99668.19
2023-12-21T12:01:23.375Z,99612.63
2023-12-21T12:03:50.796Z,99618.84
2023-12-21T12:06:17.591Z,99609.97
2023-12-21T12:08:44.348Z,99615.41
2023-12-21T12:11:11.334Z,99632.81
2023-12-21T12:13:38.868Z,99634.72
2023-12-21T12:16:05.876Z,99633.19
2023-12-21T12:18:33.602Z,99619.63
2023-12-21T12:21:02.352Z,99657.06
2023-12-21T12:23:28.974Z,99632.28
2023-12-21T12:25:55.527Z,99622.59
2023-12-21T12:28:25.085Z,99648.88
2023-12-21T12:30:52.398Z,99599.03
2023-12-21T12:33:19.283Z,99611.03
2023-12-21T12:35:49.736Z,99618.75
2023-12-21T12:38:17.730Z,99622.22
2023-12-21T12:40:47.664Z,99609.16
2023-12-21T12:43:14.326Z,99609.94
2023-12-21T12:45:43.066Z,99601.09
2023-12-21T12:48:11.722Z,99616.94
2023-12-21T12:50:38.522Z,99596.81
2023-12-21T12:53:09.295Z,99616.91
2023-12-21T12:55:36.906Z,99601.06
2023-12-21T12:58:07.023Z,99599.91
2023-12-21T13:00:33.509Z,99603.31
2023-12-21T13:03:00.138Z,99599.06
2023-12-21T13:05:26.751Z,99600.56
2023-12-21T13:07:53.384Z,99607.91
2023-12-21T13:10:20.002Z,99619.84
2023-12-21T13:12:46.562Z,99614.81
2023-12-21T13:15:13.391Z,99605.94
2023-12-21T13:17:40.532Z,99650.34
2023-12-21T13:20:08.523Z,99626.00
2023-12-21T13:22:34.966Z,99631.84
2023-12-21T13:25:02.491Z,99637.25
2023-12-21T13:27:29.090Z,99634.19
2023-12-21T13:29:55.558Z,99619.88
2023-12-21T13:32:22.381Z,99631.88
2023-12-21T13:34:49.267Z,99634.97
2023-12-21T13:37:16.015Z,99630.31
2023-12-21T13:39:42.467Z,99633.41
2023-12-21T13:42:11.392Z,99643.06
2023-12-21T13:44:38.098Z,99635.72
2023-12-21T13:47:05.423Z,99649.63
2023-12-21T13:49:32.326Z,99622.56
2023-12-21T13:51:59.125Z,99652.69
2023-12-21T13:54:25.565Z,99644.97
2023-12-21T13:57:03.219Z,99643.44
2023-12-21T13:59:34.520Z,99650.75
2023-12-21T14:02:01.094Z,99641.06
2023-12-21T14:04:27.801Z,99656.91
2023-12-21T14:06:54.285Z,99659.59
2023-12-21T14:09:20.875Z,99641.09
2023-12-21T14:11:47.636Z,99634.16
2023-12-21T14:14:14.052Z,99649.22
2023-12-21T14:16:40.607Z,99657.31
2023-12-21T14:19:07.142Z,99640.34
2023-12-21T14:21:33.618Z,99664.31
2023-12-21T14:24:00.015Z,99633.00
2023-12-21T14:26:26.460Z,99654.63
2023-12-21T14:28:57.429Z,99653.47
2023-12-21T14:31:24.599Z,99655.75
2023-12-21T14:33:51.387Z,99648.41
2023-12-21T14:36:17.881Z,99657.28
2023-12-21T14:38:44.776Z,99700.53
2023-12-21T14:41:12.266Z,99637.97
2023-12-21T14:43:38.999Z,99667.22
2023-12-21T14:46:05.781Z,99670.31
2023-12-21T14:48:32.706Z,99643.25
2023-12-21T14:50:59.262Z,99648.28
2023-12-21T14:53:25.804Z,99640.19
2023-12-21T14:55:52.629Z,99666.47
2023-12-21T14:58:19.252Z,99667.59
2023-12-21T15:00:45.988Z,99674.19
2023-12-21T15:03:12.894Z,99670.72
2023-12-21T15:05:39.641Z,99671.47
2023-12-21T15:08:08.766Z,99661.03
2023-12-21T15:10:36.989Z,99673.31
2023-12-21T15:13:06.190Z,99669.50
2023-12-21T15:15:32.710Z,99663.69
2023-12-21T15:17:59.243Z,99665.63
2023-12-21T15:20:25.911Z,99692.56
2023-12-21T15:22:52.967Z,99665.50
2023-12-21T15:25:19.612Z,99682.88
2023-12-21T15:27:46.357Z,99695.91
2023-12-21T15:30:13.705Z,99700.19
2023-12-21T15:32:40.104Z,99700.13
2023-12-21T15:35:07.268Z,99719.81
2023-12-21T15:37:33.935Z,99714.09
2023-12-21T15:40:00.417Z,99725.66
2023-12-21T15:42:26.956Z,99745.41
2023-12-21T15:44:53.394Z,99726.94
2023-12-21T15:47:19.804Z,99728.03
2023-12-21T15:49:46.636Z,99746.16
2023-12-21T15:52:13.248Z,99752.25
2023-12-21T15:54:39.852Z,99747.94
2023-12-21T15:57:06.418Z,99771.06
2023-12-21T15:59:35.868Z,99731.66
2023-12-21T16:02:03.804Z,99750.16
2023-12-21T16:04:34.002Z,99745.50
2023-12-21T16:07:02.424Z,99736.59
2023-12-21T16:09:29.116Z,99717.66
2023-12-21T16:11:55.677Z,99741.13
2023-12-21T16:14:22.079Z,99743.41
2023-12-21T16:16:49.191Z,99750.75
2023-12-21T16:19:15.753Z,99738.78
2023-12-21T16:21:42.352Z,99739.47
2023-12-21T16:24:11.003Z,99754.78
2023-12-21T16:26:44.548Z,99735.09
2023-12-21T16:29:11.025Z,99730.00
2023-12-21T16:31:37.956Z,99737.63
2023-12-21T16:34:04.784Z,99742.19
2023-12-21T16:36:31.318Z,99746.06
2023-12-21T16:38:58.151Z,99759.63
2023-12-21T16:41:25.941Z,99767.38
2023-12-21T16:43:52.493Z,99747.34
2023-12-21T16:46:19.489Z,99750.84
2023-12-21T16:48:46.257Z,99742.25
2023-12-21T16:51:13.045Z,99767.22
2023-12-21T16:53:39.700Z,99765.28
2023-12-21T16:56:06.354Z,99773.06
2023-12-21T16:58:32.824Z,99749.50
2023-12-21T17:00:59.296Z,99752.97
2023-12-21T17:03:25.794Z,99808.16
2023-12-21T17:05:52.504Z,99860.22
2023-12-21T17:08:19.332Z,99919.34
2023-12-21T17:10:45.790Z,99938.34
2023-12-21T17:13:12.612Z,99951.41
2023-12-21T17:15:39.152Z,99966.09
2023-12-21T17:18:05.853Z,99961.81
2023-12-21T17:20:34.195Z,99981.06
2023-12-21T17:23:02.526Z,99938.13
2023-12-21T17:25:29.155Z,99945.59
2023-12-21T17:27:57.248Z,99934.69
2023-12-21T17:30:26.946Z,99923.34
2023-12-21T17:32:53.647Z,99908.50
2023-12-21T17:35:20.352Z,99925.97
2023-12-21T17:37:47.074Z,99916.88
2023-12-21T17:40:16.053Z,99899.44
2023-12-21T17:42:43.681Z,99910.44
2023-12-21T17:45:11.325Z,99923.38
2023-12-21T17:47:38.362Z,99931.72
2023-12-21T17:50:05.632Z,99923.31
2023-12-21T17:52:33.445Z,99933.03
2023-12-21T17:55:00.349Z,99930.41
2023-12-21T17:57:27.065Z,99956.09
2023-12-21T17:59:54.166Z,99947.16
2023-12-21T18:02:20.628Z,99958.59
2023-12-21T18:04:51.283Z,99973.63
2023-12-21T18:07:17.836Z,99971.63
2023-12-21T18:09:44.446Z,99987.31
2023-12-21T18:12:11.130Z,99983.41
2023-12-21T18:14:37.576Z,99980.28
2023-12-21T18:17:04.712Z,99990.94
2023-12-21T18:19:31.413Z,99996.31
2023-12-21T18:21:58.120Z,99995.47
2023-12-21T18:24:25.860Z,99989.53
2023-12-21T18:26:52.358Z,99982.28
2023-12-21T18:29:21.711Z,99944.63
2023-12-21T18:31:49.547Z,99956.50
2023-12-21T18:34:17.396Z,99954.25
2023-12-21T18:36:43.964Z,99946.72
2023-12-21T18:39:11.863Z,99974.03
2023-12-21T18:41:38.957Z,99981.59
2023-12-21T18:44:07.177Z,100002.53
2023-12-21T18:46:36.550Z,100001.81
2023-12-21T18:49:04.373Z,99996.16
2023-12-21T18:51:31.737Z,99993.13
2023-12-21T18:53:58.379Z,99990.88
2023-12-21T18:56:25.603Z,99996.72
2023-12-21T18:58:53.265Z,100017.44
2023-12-21T19:01:20.058Z,100016.56
2023-12-21T19:03:47.030Z,100013.03
2023-12-21T19:06:14.021Z,100027.94
2023-12-21T19:08:42.782Z,100032.88
2023-12-21T19:11:20.220Z,100022.47
2023-12-21T19:13:48.627Z,100019.00
2023-12-21T19:16:16.031Z,100010.13
2023-12-21T19:18:43.070Z,100043.19
2023-12-21T19:21:10.586Z,100052.47
2023-12-21T19:23:41.217Z,100041.81
2023-12-21T19:26:07.670Z,100042.34
2023-12-21T19:28:34.664Z,100048.25
2023-12-21T19:31:02.504Z,100052.31
2023-12-21T19:33:30.136Z,100041.66
2023-12-21T19:35:58.651Z,100055.13
2023-12-21T19:38:25.808Z,100055.81
2023-12-21T19:40:52.633Z,100054.59
2023-12-21T19:43:20.998Z,100060.31
2023-12-21T19:45:48.505Z,100064.47
2023-12-21T19:48:15.628Z,100077.16
2023-12-21T19:50:45.818Z,100067.50
2023-12-21T19:53:12.847Z,100074.47
2023-12-21T19:55:40.381Z,100072.91
2023-12-21T19:58:10.245Z,100081.06
2023-12-21T20:00:37.591Z,100067.50
2023-12-21T20:03:05.018Z,100074.81
2023-12-21T20:05:32.469Z,100060.13
2023-12-21T20:07:59.056Z,100060.13
2023-12-21T20:10:25.791Z,100065.50
2023-12-21T20:12:52.883Z,100073.31
2023-12-21T20:15:19.289Z,100062.22
2023-12-21T20:17:47.606Z,100060.69
2023-12-21T20:20:16.225Z,100071.22
2023-12-21T20:22:43.868Z,100074.41
2023-12-21T20:25:11.321Z,100076.25
2023-12-21T20:27:38.554Z,100089.94
2023-12-21T20:30:06.163Z,100085.56
2023-12-21T20:32:33.056Z,100082.00
2023-12-21T20:35:00.421Z,100078.22
2023-12-21T20:37:27.328Z,100077.88
2023-12-21T20:39:55.081Z,100087.50
2023-12-21T20:42:22.194Z,100084.13
2023-12-21T20:44:48.734Z,100070.69
2023-12-21T20:47:15.338Z,100102.25
2023-12-21T20:49:43.848Z,100119.59
2023-12-21T20:52:13.554Z,100125.41
2023-12-21T20:54:41.231Z,100111.47
2023-12-21T20:57:10.239Z,100119.66
2023-12-21T20:59:37.898Z,100124.00
2023-12-21T21:02:04.614Z,100119.16
2023-12-21T21:04:31.425Z,100118.47
2023-12-21T21:06:57.870Z,100129.56
2023-12-21T21:09:24.575Z,100137.63
2023-12-21T21:11:51.047Z,100243.34
2023-12-21T21:14:17.542Z,100235.78
2023-12-21T21:16:44.136Z,100229.25
2023-12-21T21:19:10.754Z,100211.44
2023-12-21T21:21:37.929Z,100203.75
2023-12-21T21:24:04.889Z,100218.41
2023-12-21T21:26:31.489Z,100169.03
2023-12-21T21:28:57.932Z,100179.06
2023-12-21T21:31:26.191Z,100196.66
2023-12-21T21:33:52.946Z,100207.63
2023-12-21T21:36:20.402Z,100207.84
2023-12-21T21:38:46.960Z,100228.44
2023-12-21T21:41:17.527Z,100221.25
2023-12-21T21:43:43.992Z,100223.16
2023-12-21T21:46:10.721Z,100220.72
2023-12-21T21:48:40.113Z,100202.03
2023-12-21T21:51:11.051Z,100194.53
2023-12-21T21:53:38.683Z,100196.00
2023-12-21T21:56:05.735Z,100182.13
2023-12-21T21:58:38.117Z,100199.22
2023-12-21T22:01:05.855Z,100217.09
2023-12-21T22:03:33.346Z,100208.59
2023-12-21T22:06:00.820Z,100207.84
2023-12-21T22:08:27.325Z,100201.69
2023-12-21T22:10:54.047Z,100216.22
2023-12-21T22:13:20.633Z,100224.94
2023-12-21T22:15:47.618Z,100224.16
2023-12-21T22:18:14.120Z,100223.38
2023-12-21T22:20:40.612Z,100215.66
2023-12-21T22:23:07.032Z,100219.78
2023-12-21T22:25:34.619Z,100217.91
2023-12-21T22:28:01.380Z,100213.75
2023-12-21T22:30:27.827Z,100225.06
2023-12-21T22:32:54.336Z,100232.22
2023-12-21T22:35:21.361Z,100228.78
2023-12-21T22:37:48.084Z,100228.88
2023-12-21T22:40:14.936Z,100236.94
2023-12-21T22:42:41.632Z,100237.16
2023-12-21T22:45:08.487Z,100236.47
2023-12-21T22:47:34.986Z,100244.75
2023-12-21T22:50:01.679Z,100258.16
2023-12-21T22:52:28.361Z,100269.34
2023-12-21T22:54:54.795Z,100268.59
2023-12-21T22:57:21.192Z,100258.63
2023-12-21T22:59:47.735Z,100265.53
2023-12-21T23:02:14.132Z,100263.53
2023-12-21T23:04:40.581Z,100270.78
2023-12-21T23:07:09.179Z,100276.50
2023-12-21T23:09:36.162Z,100286.78
2023-12-21T23:12:02.831Z,100276.84
2023-12-21T23:14:29.313Z,100270.47
2023-12-21T23:16:55.970Z,100271.06
2023-12-21T23:19:22.677Z,100269.59
2023-12-21T23:21:49.415Z,100277.44
2023-12-21T23:24:15.939Z,100261.00
2023-12-21T23:26:45.716Z,100259.84
2023-12-21T23:29:12.134Z,100255.63
2023-12-21T23:31:39.160Z,100245.22
2023-12-21T23:34:05.745Z,100247.91
2023-12-21T23:36:32.326Z,100252.81
2023-12-21T23:38:58.890Z,100257.06
2023-12-21T23:41:25.290Z,100249.81
2023-12-21T23:43:51.724Z,100254.84
2023-12-21T23:46:18.182Z,100251.47
2023-12-21T23:48:44.801Z,100256.50
2023-12-21T23:51:11.280Z,100270.38
2023-12-21T23:53:37.741Z,100278.13
2023-12-21T23:56:04.420Z,100289.66
2023-12-21T23:58:31.157Z,100270.88
